EDT,Max TemperatureF,Mean TemperatureF,Min TemperatureF,Max Dew PointF,MeanDew PointF,Min DewpointF,Max Humidity, Mean Humidity, Min Humidity, Max Sea Level PressureIn, Mean Sea Level PressureIn, Min Sea Level PressureIn, Max VisibilityMiles, Mean VisibilityMiles, Min VisibilityMiles, Max Wind SpeedMPH, Mean Wind SpeedMPH, Max Gust SpeedMPH,PrecipitationIn, CloudCover, Events, WindDirDegrees
2013-6-1,71,66,60,68,62,59,100,84,73,29.89,29.82,29.75,10,10,4,22,12,43,0.63,7,Rain,203
2013-6-2,66,58,51,61,55,41,100,85,67,30.05,29.90,29.78,10,10,10,14,10,18,0.02,6,Rain,287
2013-6-3,66,54,42,50,42,37,93,65,37,30.11,30.07,30.03,10,10,10,12,5,22,0.00,0,,10
2013-6-4,73,60,46,48,45,41,93,59,33,30.17,30.13,30.09,10,10,10,13,5,18,0.00,0,,84
2013-6-5,77,65,53,52,48,45,77,53,34,30.11,30.02,29.91,10,10,10,13,7,,0.00,0,,84
2013-6-6,77,68,59,54,50,41,72,57,41,29.92,29.86,29.82,10,10,10,13,7,18,0.00,1,,46
2013-6-7,73,66,59,55,53,50,88,66,46,29.92,29.88,29.85,10,9,4,12,5,16,0.00,4,,25
2013-6-8,77,64,51,55,51,48,94,64,39,30.02,29.97,29.91,10,10,3,9,3,,0.00,3,,142
2013-6-9,80,71,62,64,57,48,94,65,34,30.04,29.97,29.86,10,9,4,15,6,18,0.06,6,Rain,151
2013-6-10,78,70,62,64,62,59,100,82,51,29.87,29.81,29.78,10,9,3,15,7,20,0.66,6,Rain,226
2013-6-11,82,70,57,66,62,57,100,80,48,29.94,29.90,29.87,10,8,0,17,4,23,0.00,2,Fog-Rain,225
2013-6-12,86,75,64,72,68,63,100,80,58,29.93,29.83,29.64,10,8,1,28,6,40,1.04,1,Rain,202
2013-6-13,75,68,59,66,58,52,100,75,50,30.01,29.84,29.63,10,9,2,21,8,30,0.27,4,Rain,337
2013-6-14,77,65,53,63,55,52,94,74,44,30.11,30.05,29.99,10,10,10,10,5,,0.00,1,,356
2013-6-15,75,65,55,66,61,55,100,81,61,30.11,30.03,29.94,10,10,7,10,3,,0.00,3,Rain,158
2013-6-16,80,72,64,66,64,63,94,78,58,29.97,29.95,29.91,10,10,10,18,10,26,0.00,6,Rain,238
2013-6-17,82,73,64,70,65,59,100,77,45,29.98,29.94,29.90,10,7,0,9,5,,0.00,3,Fog,227
2013-6-18,78,70,62,64,60,55,94,70,47,30.03,29.95,29.89,10,10,5,12,5,16,0.00,1,,8
2013-6-19,77,67,57,55,54,50,88,64,41,30.15,30.10,30.04,10,10,10,12,5,,0.00,2,,73
2013-6-20,84,72,59,64,59,54,88,67,42,30.20,30.16,30.13,10,10,10,10,4,,0.00,3,,155
2013-6-21,86,73,60,66,60,55,88,67,35,30.20,30.15,29.97,10,10,7,28,7,32,0.08,1,Rain,178
2013-6-22,86,75,64,72,68,63,100,82,62,30.14,30.09,30.02,10,9,4,22,6,32,0.00,1,,206
2013-6-23,86,74,62,68,66,63,100,78,48,30.12,30.07,30.03,10,9,3,18,5,28,0.00,1,,188
2013-6-24,84,74,64,70,66,59,100,79,54,30.13,30.06,29.96,10,8,2,18,7,37,0.13,2,Rain,201
2013-6-25,87,76,64,72,67,63,100,78,52,30.03,29.95,29.86,10,9,4,18,7,43,0.06,1,Rain,214
2013-6-26,82,74,66,72,67,64,94,85,65,29.92,29.83,29.75,10,10,7,16,5,20,0.00,6,Rain,174
2013-6-27,84,76,68,72,68,63,100,80,57,29.81,29.77,29.70,10,8,0,12,5,31,0.00,5,Fog,277
2013-6-28,80,71,62,66,61,55,100,75,47,29.71,29.67,29.61,10,10,3,13,6,30,0.02,2,Rain,292
2013-6-29,71,64,57,64,62,55,100,90,69,29.71,29.63,29.59,10,7,0,9,3,,0.07,6,Fog-Rain,295
2013-6-30,73,66,60,63,60,55,100,85,57,29.92,29.82,29.71,10,9,2,13,6,20,0.37,8,Rain,27